Time;durP1;ratioP1;P1;durP2;ratioP2;P2;SDS_P1;SDS_P2;PMS_P1;PMS_P2;Temp;Humidity;BMP_temperature;BMP_pressure;BME280_temperature;BME280_humidity;BME280_pressure;Samples;Min_cycle;Max_cycle;Signal;HPM_P1;HPM_P2
2021/11/25 00:02:13;;;;;;;55.90;32.03;;;;;;;;;;5060077;28;20025;-88
2021/11/25 00:04:39;;;;;;;52.13;31.00;;;;;;;;;;5061104;28;20027;-88
2021/11/25 00:07:05;;;;;;;54.45;30.23;;;;;;;;;;5059800;28;20041;-88
2021/11/25 00:09:31;;;;;;;53.28;29.25;;;;;;;;;;5059953;28;20087;-88
2021/11/25 00:11:57;;;;;;;51.30;29.15;;;;;;;;;;5060950;28;20017;-89
2021/11/25 00:14:23;;;;;;;55.65;29.60;;;;;;;;;;5060859;28;20095;-90
2021/11/25 00:16:50;;;;;;;51.50;29.98;;;;;;;;;;5060742;28;20033;-89
2021/11/25 00:22:19;;;;;;;49.85;29.88;;;;;;;;;;5060783;28;20031;-90
2021/11/25 00:24:45;;;;;;;48.70;30.17;;;;;;;;;;5059542;28;20088;-88
2021/11/25 00:27:11;;;;;;;51.35;28.95;;;;;;;;;;5060702;28;20051;-90
2021/11/25 00:29:38;;;;;;;48.72;28.15;;;;;;;;;;5059603;28;20415;-90
2021/11/25 00:32:04;;;;;;;48.38;28.70;;;;;;;;;;5060803;28;20078;-89
2021/11/25 00:37:34;;;;;;;46.80;27.75;;;;;;;;;;5060509;28;20116;-89
2021/11/25 00:40:00;;;;;;;44.42;26.42;;;;;;;;;;5059514;28;20017;-89
2021/11/25 00:42:26;;;;;;;46.30;27.40;;;;;;;;;;5060541;28;20044;-88
2021/11/25 00:44:52;;;;;;;46.20;26.33;;;;;;;;;;5060239;28;20024;-90
2021/11/25 00:47:18;;;;;;;42.83;26.42;;;;;;;;;;5060415;28;20031;-88
2021/11/25 00:49:44;;;;;;;40.22;24.83;;;;;;;;;;5059134;28;20032;-89
2021/11/25 00:52:11;;;;;;;42.63;25.67;;;;;;;;;;5059198;28;20017;-89
2021/11/25 00:54:37;;;;;;;44.30;26.48;;;;;;;;;;5059803;28;20115;-90
2021/11/25 00:57:03;;;;;;;43.05;24.35;;;;;;;;;;5058909;28;20029;-89
2021/11/25 00:59:29;;;;;;;40.50;25.10;;;;;;;;;;5059667;28;20017;-89
2021/11/25 01:01:55;;;;;;;40.80;24.45;;;;;;;;;;5059994;28;20049;-88
2021/11/25 01:04:23;;;;;;;38.65;23.38;;;;;;;;;;5058829;28;20029;-88
2021/11/25 01:06:49;;;;;;;38.92;23.17;;;;;;;;;;5059717;28;20049;-88
2021/11/25 01:09:15;;;;;;;37.88;23.08;;;;;;;;;;5058795;28;20115;-88
2021/11/25 01:11:41;;;;;;;34.58;21.60;;;;;;;;;;5059273;28;20033;-90
2021/11/25 01:14:07;;;;;;;35.63;21.73;;;;;;;;;;5058830;28;20029;-88
2021/11/25 01:16:33;;;;;;;36.88;21.15;;;;;;;;;;5060037;28;20021;-88
2021/11/25 01:18:59;;;;;;;33.08;21.13;;;;;;;;;;5060067;28;20025;-88
2021/11/25 01:21:25;;;;;;;33.05;20.48;;;;;;;;;;5059799;28;20032;-88
2021/11/25 01:23:51;;;;;;;28.27;18.67;;;;;;;;;;5059381;28;20108;-88
2021/11/25 01:26:18;;;;;;;31.25;19.63;;;;;;;;;;5058579;28;20480;-89
2021/11/25 01:28:44;;;;;;;33.10;20.10;;;;;;;;;;5058558;28;20487;-88
2021/11/25 01:31:10;;;;;;;31.60;19.42;;;;;;;;;;5059669;28;20025;-89
2021/11/25 01:33:36;;;;;;;31.25;20.30;;;;;;;;;;5059205;28;20399;-90
2021/11/25 01:39:06;;;;;;;31.88;18.88;;;;;;;;;;5059292;28;20380;-90
2021/11/25 01:41:32;;;;;;;31.95;19.42;;;;;;;;;;5058402;28;20023;-88
2021/11/25 01:43:58;;;;;;;31.65;19.63;;;;;;;;;;5058279;28;20031;-88
2021/11/25 01:46:24;;;;;;;31.15;19.10;;;;;;;;;;5057755;28;20099;-88
2021/11/25 01:48:51;;;;;;;31.48;19.45;;;;;;;;;;5058420;28;20029;-88
2021/11/25 01:51:18;;;;;;;33.83;19.95;;;;;;;;;;5058252;28;20442;-89
2021/11/25 01:53:44;;;;;;;31.02;19.00;;;;;;;;;;5058018;28;20075;-88
2021/11/25 01:56:11;;;;;;;33.13;21.17;;;;;;;;;;5057831;28;20028;-89
2021/11/25 01:58:37;;;;;;;31.92;19.92;;;;;;;;;;5059140;28;20051;-89
2021/11/25 02:01:06;;;;;;;32.35;19.95;;;;;;;;;;5057899;28;20029;-89
2021/11/25 02:03:32;;;;;;;33.70;20.00;;;;;;;;;;5059069;28;20071;-89
2021/11/25 02:05:59;;;;;;;31.73;20.30;;;;;;;;;;5058656;28;20029;-88
2021/11/25 02:08:25;;;;;;;31.27;19.40;;;;;;;;;;5057620;28;20025;-88
2021/11/25 02:10:52;;;;;;;30.92;19.35;;;;;;;;;;5057788;28;20441;-88
2021/11/25 02:13:18;;;;;;;35.72;20.75;;;;;;;;;;5058899;28;20036;-89
2021/11/25 02:15:44;;;;;;;33.95;20.85;;;;;;;;;;5057360;28;20032;-88
2021/11/25 02:18:12;;;;;;;32.05;19.27;;;;;;;;;;5057535;28;20029;-89
2021/11/25 02:20:57;;;;;;;30.80;19.50;;;;;;;;;;5057890;28;20025;-88
2021/11/25 02:23:23;;;;;;;32.40;19.67;;;;;;;;;;5057424;28;20031;-88
2021/11/25 02:25:50;;;;;;;33.60;21.25;;;;;;;;;;5057338;28;20099;-88
2021/11/25 02:28:20;;;;;;;32.33;20.88;;;;;;;;;;5058324;28;20021;-88
2021/11/25 02:30:46;;;;;;;33.80;20.55;;;;;;;;;;5057659;28;20074;-88
2021/11/25 02:33:12;;;;;;;35.10;20.67;;;;;;;;;;5057667;28;20025;-87
2021/11/25 02:35:39;;;;;;;32.97;20.98;;;;;;;;;;5058487;28;20052;-87
2021/11/25 02:38:06;;;;;;;35.38;21.70;;;;;;;;;;5058153;28;20029;-87
2021/11/25 02:40:33;;;;;;;36.03;20.55;;;;;;;;;;5058547;28;20021;-88
2021/11/25 02:43:08;;;;;;;33.80;20.45;;;;;;;;;;5057112;28;20021;-89
2021/11/25 02:45:44;;;;;;;33.00;20.63;;;;;;;;;;5057345;28;20029;-88
2021/11/25 02:48:10;;;;;;;33.20;21.10;;;;;;;;;;5057974;28;20408;-88
2021/11/25 02:50:36;;;;;;;32.38;20.92;;;;;;;;;;5057051;28;20056;-89
2021/11/25 02:53:02;;;;;;;33.00;21.13;;;;;;;;;;5057263;28;20057;-89
2021/11/25 02:55:28;;;;;;;33.92;20.40;;;;;;;;;;5058076;28;20048;-89
2021/11/25 02:57:56;;;;;;;33.78;20.73;;;;;;;;;;5056306;28;20021;-88
2021/11/25 03:00:22;;;;;;;32.13;20.08;;;;;;;;;;5056835;28;20112;-88
2021/11/25 03:02:56;;;;;;;29.90;19.77;;;;;;;;;;5056836;28;20032;-87
2021/11/25 03:05:22;;;;;;;33.55;20.35;;;;;;;;;;5057057;28;20033;-90
2021/11/25 03:07:48;;;;;;;30.73;19.50;;;;;;;;;;5057632;28;20032;-88
2021/11/25 03:10:15;;;;;;;32.42;20.42;;;;;;;;;;5058158;28;20063;-87
2021/11/25 03:12:42;;;;;;;35.35;22.58;;;;;;;;;;5057746;28;20033;-88
2021/11/25 03:15:08;;;;;;;34.80;21.65;;;;;;;;;;5057967;28;20031;-88
2021/11/25 03:17:37;;;;;;;33.72;20.58;;;;;;;;;;5056656;28;20028;-88
2021/11/25 03:20:03;;;;;;;35.13;22.20;;;;;;;;;;5056510;28;20029;-88
2021/11/25 03:22:29;;;;;;;33.75;21.60;;;;;;;;;;5057836;28;20490;-88
2021/11/25 03:24:57;;;;;;;38.08;23.02;;;;;;;;;;5057513;28;20045;-88
2021/11/25 03:27:23;;;;;;;39.72;24.20;;;;;;;;;;5058003;28;20029;-88
2021/11/25 03:29:49;;;;;;;40.33;22.95;;;;;;;;;;5057854;28;20025;-88
2021/11/25 03:32:15;;;;;;;42.85;24.00;;;;;;;;;;5057680;28;20029;-88
2021/11/25 03:38:22;;;;;;;34.45;22.05;;;;;;;;;;5057504;28;20040;-88
2021/11/25 03:40:49;;;;;;;37.92;21.52;;;;;;;;;;5056530;28;20083;-88
2021/11/25 03:43:15;;;;;;;37.10;21.90;;;;;;;;;;5056563;28;20017;-89
2021/11/25 03:45:41;;;;;;;36.63;22.17;;;;;;;;;;5056999;28;20021;-88
2021/11/25 03:48:08;;;;;;;34.72;21.33;;;;;;;;;;5056666;28;20540;-89
2021/11/25 03:50:34;;;;;;;33.72;21.35;;;;;;;;;;5057436;28;20104;-89
2021/11/25 03:53:00;;;;;;;40.78;24.25;;;;;;;;;;5057331;28;20112;-89
2021/11/25 03:55:26;;;;;;;35.72;22.08;;;;;;;;;;5057146;28;20074;-89
2021/11/25 03:57:52;;;;;;;38.45;23.10;;;;;;;;;;5057221;28;20148;-88
2021/11/25 04:00:20;;;;;;;36.47;22.75;;;;;;;;;;5057499;28;20029;-89
2021/11/25 04:02:47;;;;;;;33.63;22.60;;;;;;;;;;5056193;28;20079;-88
2021/11/25 04:05:32;;;;;;;34.55;21.88;;;;;;;;;;5057369;28;20025;-89
2021/11/25 04:07:58;;;;;;;38.08;22.42;;;;;;;;;;5056938;28;20021;-89
2021/11/25 04:10:24;;;;;;;33.83;22.30;;;;;;;;;;5057859;28;20454;-88
2021/11/25 04:12:50;;;;;;;34.00;21.00;;;;;;;;;;5060898;28;20079;-88
2021/11/25 04:15:17;;;;;;;34.10;21.30;;;;;;;;;;5060814;28;20029;-88
2021/11/25 04:17:43;;;;;;;32.95;21.17;;;;;;;;;;5061029;28;20021;-87
2021/11/25 04:20:10;;;;;;;34.35;21.48;;;;;;;;;;5060747;28;20072;-87
2021/11/25 04:22:37;;;;;;;31.80;20.98;;;;;;;;;;5061005;28;20131;-89
2021/11/25 04:25:04;;;;;;;33.95;21.15;;;;;;;;;;5060664;28;20133;-88
2021/11/25 04:27:30;;;;;;;34.00;20.92;;;;;;;;;;5060238;28;20438;-87
2021/11/25 04:30:49;;;;;;;32.35;20.20;;;;;;;;;;5060951;28;20296;-89
2021/11/25 04:41:38;;;;;;;30.58;20.10;;;;;;;;;;5060229;28;20471;-88
2021/11/25 04:44:04;;;;;;;33.50;21.45;;;;;;;;;;5060334;28;20048;-88
2021/11/25 04:46:30;;;;;;;33.78;21.15;;;;;;;;;;5058862;28;20048;-89
2021/11/25 04:48:56;;;;;;;31.67;20.25;;;;;;;;;;5060207;28;20031;-89
2021/11/25 04:51:38;;;;;;;33.25;20.85;;;;;;;;;;5060476;28;20025;-88
2021/11/25 04:54:05;;;;;;;30.67;19.88;;;;;;;;;;5060304;28;20033;-90
2021/11/25 04:56:31;;;;;;;33.60;20.85;;;;;;;;;;5060169;28;20031;-89
2021/11/25 04:58:57;;;;;;;47.00;20.38;;;;;;;;;;5059954;28;20029;-88
2021/11/25 05:01:23;;;;;;;32.40;20.08;;;;;;;;;;5060008;28;20024;-88
2021/11/25 05:03:49;;;;;;;28.83;18.88;;;;;;;;;;5059188;28;20021;-88
2021/11/25 05:06:16;;;;;;;32.67;19.83;;;;;;;;;;5060198;28;20025;-87
2021/11/25 05:08:42;;;;;;;32.28;19.95;;;;;;;;;;5059897;28;20025;-89
2021/11/25 05:11:08;;;;;;;33.47;20.33;;;;;;;;;;5060213;28;20029;-88
2021/11/25 05:13:35;;;;;;;32.90;20.45;;;;;;;;;;5060073;28;20032;-88
2021/11/25 05:16:03;;;;;;;32.13;20.23;;;;;;;;;;5060038;28;20036;-88
2021/11/25 05:18:29;;;;;;;33.45;20.10;;;;;;;;;;5058717;28;20025;-88
2021/11/25 05:20:55;;;;;;;36.70;21.48;;;;;;;;;;5059672;28;20044;-88
2021/11/25 05:23:21;;;;;;;36.05;21.75;;;;;;;;;;5059548;28;20021;-88
2021/11/25 05:25:47;;;;;;;36.47;22.58;;;;;;;;;;5058714;28;20041;-88
2021/11/25 05:28:13;;;;;;;43.70;26.13;;;;;;;;;;5058276;28;20112;-88
2021/11/25 05:30:40;;;;;;;53.38;27.15;;;;;;;;;;5058702;28;20323;-88
2021/11/25 05:33:06;;;;;;;59.85;30.48;;;;;;;;;;5058698;28;20025;-87
2021/11/25 05:38:35;;;;;;;42.42;23.35;;;;;;;;;;5059303;28;20036;-87
2021/11/25 05:41:02;;;;;;;41.78;22.55;;;;;;;;;;5058254;28;20490;-87
2021/11/25 05:43:28;;;;;;;40.88;22.15;;;;;;;;;;5059427;28;20395;-87
2021/11/25 05:45:54;;;;;;;39.80;23.17;;;;;;;;;;5058216;28;20021;-87
2021/11/25 05:48:22;;;;;;;41.38;23.52;;;;;;;;;;5059270;28;20029;-88
2021/11/25 05:53:52;;;;;;;73.85;29.35;;;;;;;;;;5058917;28;20120;-88
2021/11/25 05:56:18;;;;;;;61.17;30.08;;;;;;;;;;5058006;28;20037;-88
2021/11/25 05:58:44;;;;;;;59.10;28.70;;;;;;;;;;5058989;28;20112;-88
2021/11/25 06:01:10;;;;;;;61.45;30.90;;;;;;;;;;5058082;28;20468;-88
2021/11/25 06:03:36;;;;;;;70.35;32.28;;;;;;;;;;5058806;28;20100;-89
2021/11/25 06:06:40;;;;;;;64.32;31.50;;;;;;;;;;5058674;28;20067;-88
2021/11/25 06:09:06;;;;;;;51.50;27.33;;;;;;;;;;5058766;28;20017;-87
2021/11/25 06:11:32;;;;;;;43.88;25.77;;;;;;;;;;5058954;28;20104;-88
2021/11/25 06:13:58;;;;;;;42.40;25.15;;;;;;;;;;5058626;28;20025;-88
2021/11/25 06:16:24;;;;;;;45.13;25.70;;;;;;;;;;5058515;28;20024;-88
2021/11/25 06:18:50;;;;;;;38.92;24.27;;;;;;;;;;5058456;28;20033;-87
2021/11/25 06:24:20;;;;;;;43.05;24.98;;;;;;;;;;5059138;28;20044;-87
2021/11/25 06:26:49;;;;;;;57.97;27.33;;;;;;;;;;5058469;28;20037;-89
2021/11/25 06:29:15;;;;;;;46.90;25.88;;;;;;;;;;5057133;28;20036;-87
2021/11/25 06:31:42;;;;;;;53.78;28.00;;;;;;;;;;5058611;28;20101;-89
2021/11/25 06:34:08;;;;;;;53.42;30.33;;;;;;;;;;5057591;28;20111;-88
2021/11/25 06:36:34;;;;;;;61.45;33.22;;;;;;;;;;5057363;28;20031;-89
2021/11/25 06:39:00;;;;;;;67.57;33.25;;;;;;;;;;5056957;28;20043;-87
2021/11/25 06:41:26;;;;;;;64.60;35.28;;;;;;;;;;5057748;28;20017;-88
2021/11/25 06:43:52;;;;;;;76.10;36.65;;;;;;;;;;5058092;28;20029;-88
2021/11/25 06:46:18;;;;;;;61.42;32.42;;;;;;;;;;5056782;28;20025;-88
2021/11/25 06:48:44;;;;;;;62.92;33.50;;;;;;;;;;5056897;28;20025;-87
2021/11/25 06:51:10;;;;;;;61.63;32.65;;;;;;;;;;5056604;28;20430;-89
2021/11/25 06:53:36;;;;;;;56.38;31.70;;;;;;;;;;5056406;28;20036;-89
2021/11/25 06:56:03;;;;;;;53.92;30.90;;;;;;;;;;5057386;28;20029;-87
2021/11/25 06:58:29;;;;;;;56.28;31.02;;;;;;;;;;5046433;28;20025;-87
2021/11/25 07:00:56;;;;;;;57.50;30.40;;;;;;;;;;5038362;28;20029;-88
2021/11/25 07:03:22;;;;;;;63.95;32.90;;;;;;;;;;5037072;28;20024;-87
2021/11/25 07:05:48;;;;;;;74.72;40.15;;;;;;;;;;5037941;28;20314;-87
2021/11/25 07:08:14;;;;;;;63.10;36.72;;;;;;;;;;5036856;28;20036;-88
2021/11/25 07:10:40;;;;;;;65.40;37.53;;;;;;;;;;5038069;28;20056;-89
2021/11/25 07:13:06;;;;;;;65.75;35.60;;;;;;;;;;5036878;28;20072;-88
2021/11/25 07:15:32;;;;;;;57.03;33.90;;;;;;;;;;5036666;28;20442;-88
2021/11/25 07:17:59;;;;;;;57.88;32.03;;;;;;;;;;5037756;28;20402;-88
2021/11/25 07:20:40;;;;;;;53.35;32.17;;;;;;;;;;5036847;28;20116;-87
2021/11/25 07:23:06;;;;;;;48.42;29.17;;;;;;;;;;5036643;28;20359;-88
2021/11/25 07:25:32;;;;;;;55.45;29.67;;;;;;;;;;5036738;28;20072;-87
2021/11/25 07:27:58;;;;;;;52.10;30.38;;;;;;;;;;5037782;28;20017;-88
2021/11/25 07:30:25;;;;;;;48.20;27.92;;;;;;;;;;5037708;28;20120;-87
2021/11/25 07:32:51;;;;;;;43.28;27.08;;;;;;;;;;5037745;28;20104;-88
2021/11/25 07:35:21;;;;;;;45.17;27.23;;;;;;;;;;5037524;28;20060;-88
2021/11/25 07:38:24;;;;;;;48.08;28.33;;;;;;;;;;5037941;28;20029;-88
2021/11/25 07:40:52;;;;;;;48.45;29.98;;;;;;;;;;5037621;28;20487;-88
2021/11/25 07:43:18;;;;;;;56.97;32.50;;;;;;;;;;5045159;28;20064;-89
2021/11/25 07:45:44;;;;;;;59.92;33.72;;;;;;;;;;5060048;28;20024;-88
2021/11/25 07:48:12;;;;;;;68.00;34.50;;;;;;;;;;5060484;28;20100;-89
2021/11/25 07:50:51;;;;;;;60.15;34.67;;;;;;;;;;5061358;28;20423;-89
2021/11/25 07:53:17;;;;;;;58.05;32.33;;;;;;;;;;5060262;28;20079;-89
2021/11/25 07:55:43;;;;;;;51.78;30.63;;;;;;;;;;5061232;28;20033;-89
2021/11/25 07:58:09;;;;;;;56.05;31.65;;;;;;;;;;5059982;28;20066;-88
2021/11/25 08:00:35;;;;;;;56.80;32.55;;;;;;;;;;5061212;28;20021;-88
2021/11/25 08:03:01;;;;;;;49.13;30.02;;;;;;;;;;5061522;28;20454;-88
2021/11/25 08:05:28;;;;;;;48.60;29.75;;;;;;;;;;5060515;28;20029;-89
2021/11/25 08:07:54;;;;;;;51.40;29.92;;;;;;;;;;5060064;28;20025;-88
2021/11/25 08:10:22;;;;;;;45.53;27.75;;;;;;;;;;5061024;28;20025;-89
2021/11/25 08:12:48;;;;;;;49.88;28.98;;;;;;;;;;5059607;28;20079;-88
2021/11/25 08:15:15;;;;;;;58.17;29.60;;;;;;;;;;5060731;28;20025;-89
2021/11/25 08:17:41;;;;;;;49.08;28.02;;;;;;;;;;5060962;28;20415;-89
2021/11/25 08:20:07;;;;;;;50.38;29.83;;;;;;;;;;5059887;28;20031;-90
2021/11/25 08:22:33;;;;;;;54.17;31.75;;;;;;;;;;5060612;28;20058;-89
2021/11/25 08:25:01;;;;;;;52.50;31.30;;;;;;;;;;5059758;28;20048;-88
2021/11/25 08:27:28;;;;;;;53.20;30.15;;;;;;;;;;5060632;28;20033;-88
2021/11/25 08:29:54;;;;;;;55.90;27.75;;;;;;;;;;5060959;28;20323;-89
2021/11/25 08:32:20;;;;;;;50.45;28.05;;;;;;;;;;5059701;28;20041;-88
2021/11/25 08:34:46;;;;;;;43.50;25.67;;;;;;;;;;5060547;28;20032;-89
2021/11/25 08:37:12;;;;;;;50.50;28.27;;;;;;;;;;5059248;28;20029;-87
2021/11/25 08:39:38;;;;;;;46.08;25.75;;;;;;;;;;5061020;28;20021;-89
2021/11/25 08:42:08;;;;;;;47.70;25.45;;;;;;;;;;5061304;28;20025;-87
2021/11/25 08:44:34;;;;;;;44.65;26.08;;;;;;;;;;5061678;28;20025;-86
2021/11/25 08:47:01;;;;;;;51.25;28.48;;;;;;;;;;5060422;28;20029;-88
2021/11/25 08:49:29;;;;;;;58.88;28.20;;;;;;;;;;5060668;28;20025;-88
2021/11/25 08:51:55;;;;;;;56.63;28.42;;;;;;;;;;5061290;28;20021;-87
2021/11/25 08:54:22;;;;;;;49.30;25.73;;;;;;;;;;5059716;28;20025;-87
2021/11/25 08:56:49;;;;;;;41.45;25.25;;;;;;;;;;5058873;28;20033;-88
2021/11/25 08:59:15;;;;;;;44.95;25.25;;;;;;;;;;5059204;28;20029;-88
2021/11/25 09:01:41;;;;;;;45.58;24.02;;;;;;;;;;5060231;28;20028;-88
2021/11/25 09:04:07;;;;;;;41.38;25.40;;;;;;;;;;5060165;28;20029;-88
2021/11/25 09:06:35;;;;;;;44.97;25.10;;;;;;;;;;5059721;28;20337;-87
2021/11/25 09:09:03;;;;;;;39.67;25.48;;;;;;;;;;5059644;28;20095;-88
2021/11/25 09:11:29;;;;;;;43.20;27.00;;;;;;;;;;5059312;28;20025;-87
2021/11/25 09:13:55;;;;;;;42.97;27.52;;;;;;;;;;5060580;28;20025;-88
2021/11/25 09:16:21;;;;;;;45.95;26.25;;;;;;;;;;5060105;28;20025;-87
2021/11/25 09:18:48;;;;;;;71.53;29.70;;;;;;;;;;5059900;28;20025;-88
2021/11/25 09:21:14;;;;;;;48.40;26.00;;;;;;;;;;5060601;28;20067;-88
2021/11/25 09:23:40;;;;;;;60.95;28.10;;;;;;;;;;5058507;28;20422;-88
2021/11/25 09:26:06;;;;;;;46.47;26.83;;;;;;;;;;5058731;28;20068;-89
2021/11/25 09:28:34;;;;;;;61.17;25.00;;;;;;;;;;5059853;28;20021;-88
2021/11/25 09:31:00;;;;;;;45.20;24.80;;;;;;;;;;5058541;28;20071;-88
2021/11/25 09:33:27;;;;;;;41.47;26.70;;;;;;;;;;5059639;28;20433;-88
2021/11/25 09:35:53;;;;;;;41.83;23.83;;;;;;;;;;5058258;28;20040;-89
2021/11/25 09:38:20;;;;;;;52.17;28.35;;;;;;;;;;5058250;28;20074;-87
2021/11/25 09:40:48;;;;;;;59.05;27.77;;;;;;;;;;5058344;28;20075;-88
2021/11/25 09:43:20;;;;;;;51.75;27.98;;;;;;;;;;5058213;28;20025;-88
2021/11/25 09:45:49;;;;;;;47.97;26.33;;;;;;;;;;5058248;28;20025;-88
2021/11/25 09:48:15;;;;;;;46.63;23.17;;;;;;;;;;5059008;28;20036;-88
2021/11/25 09:50:46;;;;;;;52.65;25.55;;;;;;;;;;5059177;28;20025;-88
2021/11/25 09:53:14;;;;;;;68.25;38.20;;;;;;;;;;5059169;28;20032;-88
2021/11/25 09:55:42;;;;;;;69.82;36.05;;;;;;;;;;5058196;28;20033;-88
2021/11/25 09:58:12;;;;;;;63.90;32.85;;;;;;;;;;5057711;28;20033;-88
2021/11/25 10:00:39;;;;;;;51.88;26.63;;;;;;;;;;5058973;28;20443;-88
2021/11/25 10:03:05;;;;;;;48.35;26.88;;;;;;;;;;5058769;28;20021;-88
2021/11/25 10:05:31;;;;;;;45.53;25.10;;;;;;;;;;5058773;28;20025;-88
2021/11/25 10:07:57;;;;;;;39.70;25.42;;;;;;;;;;5057665;28;20033;-87
2021/11/25 10:10:29;;;;;;;39.97;25.45;;;;;;;;;;5058956;28;20028;-88
2021/11/25 10:13:02;;;;;;;39.03;24.05;;;;;;;;;;5058758;28;20025;-87
2021/11/25 10:15:31;;;;;;;46.80;27.50;;;;;;;;;;5058535;28;20051;-88
2021/11/25 10:17:59;;;;;;;48.97;29.23;;;;;;;;;;5057486;28;20055;-89
2021/11/25 10:20:29;;;;;;;64.20;36.20;;;;;;;;;;5058653;28;20039;-87
2021/11/25 10:23:02;;;;;;;70.38;36.33;;;;;;;;;;5058185;28;20028;-88
2021/11/25 10:25:45;;;;;;;59.75;30.33;;;;;;;;;;5058287;28;20120;-86
2021/11/25 10:28:31;;;;;;;79.97;33.80;;;;;;;;;;5057010;28;20028;-88
2021/11/25 10:31:14;;;;;;;124.00;46.45;;;;;;;;;;5056260;28;20033;-87
2021/11/25 10:33:47;;;;;;;88.13;39.72;;;;;;;;;;5057353;28;20052;-88
2021/11/25 10:38:57;;;;;;;91.82;47.58;;;;;;;;;;5058173;28;19915;-87
2021/11/25 10:41:24;;;;;;;55.13;34.38;;;;;;;;;;5058221;28;20025;-88
2021/11/25 10:44:03;;;;;;;60.30;36.97;;;;;;;;;;5058219;28;20060;-88
2021/11/25 10:46:41;;;;;;;46.53;26.92;;;;;;;;;;5058055;28;20028;-87
2021/11/25 10:49:10;;;;;;;43.05;26.70;;;;;;;;;;5057708;28;20369;-87
2021/11/25 10:54:59;;;;;;;47.40;28.05;;;;;;;;;;5057872;28;20039;-87
2021/11/25 10:57:35;;;;;;;44.17;26.98;;;;;;;;;;5056665;28;20040;-86
2021/11/25 11:00:06;;;;;;;48.05;26.85;;;;;;;;;;5056870;28;20052;-87
2021/11/25 11:02:32;;;;;;;40.65;25.33;;;;;;;;;;5057400;28;20070;-87
2021/11/25 11:05:00;;;;;;;44.45;29.23;;;;;;;;;;5057766;28;20025;-86
2021/11/25 11:07:28;;;;;;;51.78;32.85;;;;;;;;;;5057077;28;20021;-87
2021/11/25 11:09:55;;;;;;;62.08;38.33;;;;;;;;;;5056923;28;20027;-87
2021/11/25 11:12:35;;;;;;;69.75;42.20;;;;;;;;;;5057744;28;20021;-86
2021/11/25 11:15:25;;;;;;;51.45;30.13;;;;;;;;;;5056782;28;20112;-87
2021/11/25 11:18:01;;;;;;;58.47;36.58;;;;;;;;;;5056720;28;20033;-87
2021/11/25 11:20:28;;;;;;;89.53;53.92;;;;;;;;;;5056656;28;20036;-87
2021/11/25 11:22:58;;;;;;;49.42;30.60;;;;;;;;;;5057409;28;20017;-87
2021/11/25 11:25:26;;;;;;;44.10;25.92;;;;;;;;;;5057231;28;20323;-87
2021/11/25 11:27:53;;;;;;;41.50;25.63;;;;;;;;;;5056592;28;20036;-87
2021/11/25 11:30:20;;;;;;;64.97;40.10;;;;;;;;;;5056448;28;20116;-88
2021/11/25 11:32:46;;;;;;;78.22;45.10;;;;;;;;;;5056707;28;20025;-87
2021/11/25 11:35:13;;;;;;;55.25;32.92;;;;;;;;;;5056535;28;20116;-87
2021/11/25 11:37:40;;;;;;;89.43;52.97;;;;;;;;;;5057291;28;20068;-87
2021/11/25 11:40:08;;;;;;;64.97;36.45;;;;;;;;;;5056405;28;20400;-87
2021/11/25 11:42:35;;;;;;;45.17;28.80;;;;;;;;;;5056562;28;20025;-86
2021/11/25 11:45:01;;;;;;;76.75;37.28;;;;;;;;;;5057063;28;20025;-87
2021/11/25 11:47:28;;;;;;;47.72;29.40;;;;;;;;;;5056931;28;20029;-87
2021/11/25 11:50:00;;;;;;;48.92;29.05;;;;;;;;;;5057467;28;20314;-87
2021/11/25 11:52:26;;;;;;;43.28;26.98;;;;;;;;;;5057188;28;20021;-87
2021/11/25 11:54:53;;;;;;;46.13;28.65;;;;;;;;;;5056064;28;20297;-86
2021/11/25 11:57:39;;;;;;;44.33;28.70;;;;;;;;;;5056987;28;20040;-87
2021/11/25 12:00:05;;;;;;;40.95;26.27;;;;;;;;;;5057450;28;20043;-86
2021/11/25 12:02:37;;;;;;;45.70;27.42;;;;;;;;;;5057300;28;20025;-87
2021/11/25 12:05:03;;;;;;;42.33;26.92;;;;;;;;;;5057172;28;20048;-87
2021/11/25 12:10:53;;;;;;;54.78;33.35;;;;;;;;;;5057149;28;20127;-87
2021/11/25 12:13:19;;;;;;;51.20;30.25;;;;;;;;;;5057108;28;20021;-86
2021/11/25 12:15:45;;;;;;;53.17;31.67;;;;;;;;;;5056051;28;20032;-86
2021/11/25 12:18:37;;;;;;;41.28;27.50;;;;;;;;;;5057835;28;20025;-86
2021/11/25 12:21:03;;;;;;;;;;;;;;;;;;5054892;28;20053;-87
2021/11/25 12:23:37;;;;;;;46.97;29.83;;;;;;;;;;5055975;28;19931;-86
2021/11/25 12:26:03;;;;;;;41.60;27.40;;;;;;;;;;5056906;28;20044;-86
2021/11/25 12:28:30;;;;;;;46.40;26.67;;;;;;;;;;5055793;28;20028;-87
2021/11/25 12:33:56;;;;;;;40.47;25.58;;;;;;;;;;5019338;28;20125;-87
2021/11/25 12:36:36;;;;;;;41.88;26.27;;;;;;;;;;5018698;28;20032;-86
2021/11/25 12:39:04;;;;;;;47.05;27.77;;;;;;;;;;5018959;28;20122;-86
2021/11/25 12:41:30;;;;;;;47.28;27.00;;;;;;;;;;5002621;28;20029;-86
2021/11/25 12:43:57;;;;;;;49.17;28.77;;;;;;;;;;5018776;28;20029;-86
2021/11/25 12:46:23;;;;;;;47.97;29.90;;;;;;;;;;5002374;28;20018;-85
2021/11/25 12:48:50;;;;;;;50.78;30.42;;;;;;;;;;5002357;28;20030;-87
2021/11/25 12:51:19;;;;;;;46.92;31.20;;;;;;;;;;5019073;28;20041;-87
2021/11/25 12:56:48;;;;;;;69.63;38.70;;;;;;;;;;5018904;28;20041;-85
2021/11/25 12:59:17;;;;;;;89.85;48.45;;;;;;;;;;5002224;28;20117;-85
2021/11/25 13:01:47;;;;;;;65.15;40.05;;;;;;;;;;5018513;28;20045;-85
2021/11/25 13:04:15;;;;;;;96.22;41.67;;;;;;;;;;5018463;28;20117;-92
2021/11/25 13:07:07;;;;;;;69.13;33.65;;;;;;;;;;5019185;28;20050;-92
2021/11/25 13:09:34;;;;;;;92.97;39.00;;;;;;;;;;5030467;28;20033;-94
2021/11/25 13:12:04;;;;;;;111.18;44.20;;;;;;;;;;5059270;28;20049;-93
2021/11/25 13:14:31;;;;;;;134.38;48.55;;;;;;;;;;5060038;28;20025;-93
2021/11/25 13:17:01;;;;;;;118.32;47.58;;;;;;;;;;5060163;28;20100;-94
2021/11/25 13:19:28;;;;;;;126.57;51.78;;;;;;;;;;5059789;28;20033;-94
2021/11/25 13:21:59;;;;;;;100.47;47.00;;;;;;;;;;5058903;28;20021;-94
2021/11/25 13:24:30;;;;;;;115.25;49.20;;;;;;;;;;5058062;28;20049;-94
2021/11/25 13:26:59;;;;;;;154.25;61.47;;;;;;;;;;5058951;28;20052;-94
2021/11/25 13:29:43;;;;;;;242.93;105.18;;;;;;;;;;5059588;28;20066;-94
2021/11/25 13:32:17;;;;;;;203.98;89.25;;;;;;;;;;5058972;28;20068;-95
2021/11/25 13:34:45;;;;;;;122.85;61.83;;;;;;;;;;5059656;28;20050;-95
2021/11/25 13:40:16;;;;;;;84.85;48.88;;;;;;;;;;5059492;28;20094;-93
2021/11/25 13:42:44;;;;;;;96.70;54.40;;;;;;;;;;5059028;28;20029;-94
2021/11/25 13:45:18;;;;;;;102.45;54.53;;;;;;;;;;5058467;28;20025;-94
2021/11/25 13:47:45;;;;;;;121.75;54.42;;;;;;;;;;5058905;28;20067;-95
2021/11/25 13:50:13;;;;;;;121.90;55.22;;;;;;;;;;5058545;28;20021;-95
2021/11/25 13:52:58;;;;;;;131.93;57.05;;;;;;;;;;5057786;28;20040;-95
2021/11/25 13:55:25;;;;;;;131.48;56.25;;;;;;;;;;5059132;28;20074;-94
2021/11/25 13:57:51;;;;;;;127.53;55.35;;;;;;;;;;5059314;28;20032;-96
2021/11/25 14:00:18;;;;;;;157.32;62.67;;;;;;;;;;5059117;28;20025;-94
2021/11/25 14:02:44;;;;;;;161.38;68.80;;;;;;;;;;5058633;28;20024;-94
2021/11/25 14:05:12;;;;;;;121.97;58.92;;;;;;;;;;5059117;28;20048;-94
2021/11/25 14:13:45;;;;;;;145.55;63.35;;;;;;;;;;5059008;28;20100;-93
2021/11/25 14:16:12;;;;;;;139.85;66.25;;;;;;;;;;5059420;28;20462;-95
2021/11/25 14:18:39;;;;;;;121.95;61.75;;;;;;;;;;5059395;28;20057;-95
2021/11/25 14:21:05;;;;;;;109.45;54.08;;;;;;;;;;5058876;28;20021;-94
2021/11/25 14:23:31;;;;;;;107.28;54.03;;;;;;;;;;5058372;28;20411;-95
2021/11/25 14:26:11;;;;;;;103.82;53.97;;;;;;;;;;5057254;28;20056;-95
2021/11/25 14:31:24;;;;;;;106.25;55.80;;;;;;;;;;5058887;28;20159;-94
2021/11/25 14:34:04;;;;;;;105.07;55.53;;;;;;;;;;5058199;28;20025;-93
2021/11/25 14:36:39;;;;;;;106.05;54.20;;;;;;;;;;5057459;28;20021;-94
2021/11/25 14:39:14;;;;;;;118.90;63.83;;;;;;;;;;5057862;28;20020;-94
2021/11/25 14:41:40;;;;;;;112.55;60.22;;;;;;;;;;5057220;28;20025;-93
2021/11/25 14:44:09;;;;;;;117.65;60.88;;;;;;;;;;5058110;28;20052;-93
2021/11/25 14:46:40;;;;;;;117.45;61.53;;;;;;;;;;5059164;28;20021;-92
2021/11/25 14:49:08;;;;;;;118.18;61.95;;;;;;;;;;5059152;28;20055;-89
2021/11/25 14:51:35;;;;;;;142.25;70.38;;;;;;;;;;5057813;28;20120;-85
2021/11/25 14:54:20;;;;;;;148.02;75.57;;;;;;;;;;5057253;28;20031;-85
2021/11/25 14:56:48;;;;;;;213.05;92.90;;;;;;;;;;5057585;28;20418;-85
2021/11/25 14:59:14;;;;;;;214.73;96.03;;;;;;;;;;5057626;28;20049;-85
2021/11/25 15:01:44;;;;;;;184.07;96.30;;;;;;;;;;5058118;28;20100;-85
2021/11/25 15:04:12;;;;;;;160.80;85.93;;;;;;;;;;5056596;28;20067;-84
2021/11/25 15:06:40;;;;;;;149.93;84.68;;;;;;;;;;5056762;28;20434;-85
2021/11/25 15:09:08;;;;;;;149.25;81.13;;;;;;;;;;5057794;28;20029;-85
2021/11/25 15:11:34;;;;;;;135.68;75.78;;;;;;;;;;5057780;28;20032;-85
2021/11/25 15:14:02;;;;;;;94.72;52.65;;;;;;;;;;5056768;28;20033;-85
2021/11/25 15:16:28;;;;;;;75.13;41.83;;;;;;;;;;5056598;28;20025;-85
2021/11/25 15:18:54;;;;;;;93.22;45.70;;;;;;;;;;5057755;28;20071;-86
2021/11/25 15:21:20;;;;;;;83.97;40.75;;;;;;;;;;5056789;28;20029;-86